Time;durP1;ratioP1;P1;durP2;ratioP2;P2;SDS_P1;SDS_P2;PMS_P1;PMS_P2;Temp;Humidity;BMP_temperature;BMP_pressure;BME280_temperature;BME280_humidity;BME280_pressure;Samples;Min_cycle;Max_cycle;Signal;HPM_P1;HPM_P2
2023/11/17 00:02:24;;;;;;;78.50;72.97;;;;;;;;;;5008674;28;25142;-70
2023/11/17 00:04:50;;;;;;;81.38;75.95;;;;;;;;;;5009252;28;25125;-71
2023/11/17 00:07:16;;;;;;;82.63;76.93;;;;;;;;;;5008788;28;25087;-69
2023/11/17 00:09:42;;;;;;;85.47;79.20;;;;;;;;;;5009266;28;25055;-71
2023/11/17 00:12:10;;;;;;;83.00;76.65;;;;;;;;;;5010174;28;25186;-70
2023/11/17 00:14:36;;;;;;;84.00;77.75;;;;;;;;;;5006700;28;25066;-71
2023/11/17 00:17:03;;;;;;;80.40;74.68;;;;;;;;;;5009013;28;25156;-70
2023/11/17 00:19:29;;;;;;;80.03;74.30;;;;;;;;;;5007006;28;25108;-70
2023/11/17 00:21:55;;;;;;;75.93;70.63;;;;;;;;;;5008565;28;25103;-70
2023/11/17 00:24:21;;;;;;;79.38;73.68;;;;;;;;;;5008227;28;25068;-71
2023/11/17 00:26:47;;;;;;;83.07;77.15;;;;;;;;;;5009079;28;25063;-70
2023/11/17 00:29:13;;;;;;;81.03;74.80;;;;;;;;;;5011388;28;25160;-71
2023/11/17 00:31:39;;;;;;;79.13;73.57;;;;;;;;;;5006243;28;25066;-71
2023/11/17 00:34:05;;;;;;;78.32;72.40;;;;;;;;;;5006301;28;25133;-70
2023/11/17 00:36:31;;;;;;;74.50;69.68;;;;;;;;;;5009518;28;25068;-70
2023/11/17 00:38:57;;;;;;;77.20;71.70;;;;;;;;;;5005219;28;25097;-70
2023/11/17 00:41:23;;;;;;;77.07;71.78;;;;;;;;;;5007524;28;25098;-70
2023/11/17 00:43:50;;;;;;;77.05;71.65;;;;;;;;;;5006562;28;25134;-70
2023/11/17 00:46:17;;;;;;;74.35;68.95;;;;;;;;;;5007751;28;25069;-71
2023/11/17 00:48:44;;;;;;;74.97;69.38;;;;;;;;;;5006814;28;25053;-70
2023/11/17 00:51:10;;;;;;;72.68;67.78;;;;;;;;;;5011529;28;25065;-70
2023/11/17 00:53:37;;;;;;;71.03;66.15;;;;;;;;;;5006652;28;25078;-72
2023/11/17 00:56:04;;;;;;;73.80;68.43;;;;;;;;;;5012550;28;25062;-69
2023/11/17 00:58:30;;;;;;;76.65;71.35;;;;;;;;;;5011808;28;25095;-69
2023/11/17 01:00:57;;;;;;;72.20;67.40;;;;;;;;;;5005661;28;25065;-70
2023/11/17 01:03:23;;;;;;;75.63;70.65;;;;;;;;;;5007832;28;25122;-70
2023/11/17 01:05:49;;;;;;;75.47;69.85;;;;;;;;;;5008601;28;25126;-70
2023/11/17 01:08:15;;;;;;;77.40;72.00;;;;;;;;;;5007708;28;25058;-69
2023/11/17 01:10:42;;;;;;;76.70;71.55;;;;;;;;;;5009452;28;25288;-72
2023/11/17 01:13:08;;;;;;;76.70;71.20;;;;;;;;;;5009465;28;25060;-70
2023/11/17 01:15:37;;;;;;;77.55;72.07;;;;;;;;;;5008668;28;25075;-71
2023/11/17 01:18:03;;;;;;;79.07;73.38;;;;;;;;;;5007315;28;25158;-71
2023/11/17 01:20:29;;;;;;;79.85;73.93;;;;;;;;;;5009014;28;25082;-69
2023/11/17 01:22:55;;;;;;;75.05;70.00;;;;;;;;;;5005776;28;25080;-70
2023/11/17 01:25:21;;;;;;;73.85;68.50;;;;;;;;;;5005275;28;25062;-70
2023/11/17 01:27:47;;;;;;;73.68;68.32;;;;;;;;;;5008434;28;25060;-71
2023/11/17 01:30:14;;;;;;;75.28;70.10;;;;;;;;;;5001960;28;25055;-71
2023/11/17 01:32:40;;;;;;;77.60;71.82;;;;;;;;;;5002434;28;25073;-69
2023/11/17 01:35:06;;;;;;;74.47;69.22;;;;;;;;;;5006448;28;25057;-70
2023/11/17 01:37:32;;;;;;;73.10;67.68;;;;;;;;;;5008991;28;25080;-72
2023/11/17 01:39:58;;;;;;;76.43;71.35;;;;;;;;;;5009081;28;25063;-71
2023/11/17 01:42:25;;;;;;;79.20;73.20;;;;;;;;;;5009078;28;25062;-70
2023/11/17 01:44:51;;;;;;;76.70;71.13;;;;;;;;;;5006181;28;25075;-71
2023/11/17 01:47:20;;;;;;;79.88;74.35;;;;;;;;;;5007889;28;25169;-71
2023/11/17 01:49:46;;;;;;;79.57;74.10;;;;;;;;;;5005136;28;25053;-70
2023/11/17 01:52:12;;;;;;;78.43;72.85;;;;;;;;;;5010727;28;25092;-70
2023/11/17 01:54:39;;;;;;;76.05;70.15;;;;;;;;;;5004907;28;25104;-70
2023/11/17 01:57:05;;;;;;;75.95;70.90;;;;;;;;;;5006715;28;25089;-71
2023/11/17 01:59:31;;;;;;;76.18;70.50;;;;;;;;;;5005365;28;25090;-71
2023/11/17 02:01:57;;;;;;;76.43;71.43;;;;;;;;;;5006986;28;25076;-70
2023/11/17 02:04:23;;;;;;;77.07;71.88;;;;;;;;;;4998005;28;25112;-70
2023/11/17 02:07:12;;;;;;;77.40;71.85;;;;;;;;;;5008537;28;25099;-70
2023/11/17 02:09:46;;;;;;;78.78;73.13;;;;;;;;;;5002918;28;25063;-70
2023/11/17 02:12:34;;;;;;;80.00;74.10;;;;;;;;;;5001880;28;25083;-70
2023/11/17 02:15:09;;;;;;;75.90;70.40;;;;;;;;;;5008926;28;25069;-70
2023/11/17 02:17:42;;;;;;;73.82;68.80;;;;;;;;;;5005041;28;25059;-71
2023/11/17 02:20:13;;;;;;;77.07;71.72;;;;;;;;;;5008387;28;25072;-70
2023/11/17 02:22:47;;;;;;;77.00;71.60;;;;;;;;;;5007232;28;25160;-70
2023/11/17 02:25:17;;;;;;;77.47;71.10;;;;;;;;;;5004671;28;25070;-70
2023/11/17 02:27:46;;;;;;;79.45;73.82;;;;;;;;;;5008327;28;25069;-70
2023/11/17 02:30:19;;;;;;;81.18;75.40;;;;;;;;;;5008454;28;25083;-70
2023/11/17 02:32:45;;;;;;;77.53;72.32;;;;;;;;;;5007282;28;25086;-70
2023/11/17 02:35:11;;;;;;;79.15;73.53;;;;;;;;;;5016683;28;25068;-70
2023/11/17 02:37:40;;;;;;;77.68;72.63;;;;;;;;;;5016443;28;25085;-70
2023/11/17 02:40:18;;;;;;;80.38;74.57;;;;;;;;;;5012455;28;25071;-70
2023/11/17 02:42:44;;;;;;;76.28;70.85;;;;;;;;;;5008608;28;25123;-70
2023/11/17 02:45:18;;;;;;;73.55;68.45;;;;;;;;;;5007430;28;25095;-70
2023/11/17 02:47:46;;;;;;;75.22;69.75;;;;;;;;;;5007067;28;25066;-72
2023/11/17 02:50:18;;;;;;;76.45;70.93;;;;;;;;;;5008767;28;25057;-70
2023/11/17 02:53:00;;;;;;;75.25;70.18;;;;;;;;;;5010135;28;25057;-71
2023/11/17 02:55:28;;;;;;;77.07;71.63;;;;;;;;;;5018104;28;25080;-70
2023/11/17 02:57:55;;;;;;;76.13;70.63;;;;;;;;;;5014789;28;25050;-70
2023/11/17 03:00:22;;;;;;;73.35;68.43;;;;;;;;;;5021180;28;25098;-70
2023/11/17 03:02:48;;;;;;;72.65;67.47;;;;;;;;;;5019741;28;25067;-70
2023/11/17 03:05:17;;;;;;;70.30;65.40;;;;;;;;;;5013095;28;25146;-70
2023/11/17 03:07:48;;;;;;;68.95;64.50;;;;;;;;;;5027323;28;25066;-70
2023/11/17 03:10:14;;;;;;;67.70;63.00;;;;;;;;;;5017345;28;25096;-69
2023/11/17 03:12:39;;;;;;;70.90;65.90;;;;;;;;;;5013718;28;25088;-70
2023/11/17 03:15:09;;;;;;;66.90;62.25;;;;;;;;;;5003009;28;25075;-70
2023/11/17 03:17:35;;;;;;;70.18;64.88;;;;;;;;;;5012036;28;25164;-71
2023/11/17 03:20:02;;;;;;;66.03;61.28;;;;;;;;;;5011266;28;25105;-69
2023/11/17 03:22:27;;;;;;;63.55;58.58;;;;;;;;;;5014597;28;25145;-71
2023/11/17 03:24:57;;;;;;;62.05;57.88;;;;;;;;;;5016450;28;25073;-70
2023/11/17 03:27:23;;;;;;;59.22;55.13;;;;;;;;;;5009195;28;25057;-71
2023/11/17 03:29:49;;;;;;;60.83;56.70;;;;;;;;;;5012708;28;25138;-71
2023/11/17 03:32:16;;;;;;;63.58;58.92;;;;;;;;;;5002342;28;25068;-70
2023/11/17 03:34:42;;;;;;;65.35;60.50;;;;;;;;;;5013082;28;25116;-70
2023/11/17 03:37:12;;;;;;;65.95;60.97;;;;;;;;;;5012557;28;25096;-70
2023/11/17 03:39:41;;;;;;;68.20;62.88;;;;;;;;;;5011327;28;25203;-71
2023/11/17 03:42:09;;;;;;;67.70;62.65;;;;;;;;;;5011094;28;25046;-69
2023/11/17 03:44:36;;;;;;;69.85;64.97;;;;;;;;;;5005585;28;25075;-70
2023/11/17 03:47:06;;;;;;;70.70;64.97;;;;;;;;;;5006772;28;25053;-71
2023/11/17 03:49:33;;;;;;;68.10;63.25;;;;;;;;;;5004547;28;25070;-70
2023/11/17 03:51:59;;;;;;;69.03;64.03;;;;;;;;;;5010066;28;25088;-70
2023/11/17 03:54:25;;;;;;;69.20;64.32;;;;;;;;;;5009221;28;25421;-70
2023/11/17 03:56:52;;;;;;;71.57;66.13;;;;;;;;;;5011526;28;25097;-70
2023/11/17 03:59:19;;;;;;;72.40;66.72;;;;;;;;;;5008663;28;25046;-71
2023/11/17 04:01:45;;;;;;;73.82;68.35;;;;;;;;;;5007867;28;25057;-70
2023/11/17 04:04:11;;;;;;;79.50;73.03;;;;;;;;;;5010754;28;25061;-70
2023/11/17 04:06:37;;;;;;;72.32;66.80;;;;;;;;;;5009426;28;25066;-70
2023/11/17 04:09:04;;;;;;;73.90;67.78;;;;;;;;;;5011848;28;25102;-70
2023/11/17 04:11:33;;;;;;;73.05;67.25;;;;;;;;;;5006504;28;25058;-70
2023/11/17 04:13:59;;;;;;;77.05;70.43;;;;;;;;;;5011419;28;25137;-70
2023/11/17 04:16:25;;;;;;;74.70;68.43;;;;;;;;;;5009327;28;25137;-69
2023/11/17 04:18:51;;;;;;;71.53;65.70;;;;;;;;;;5011219;28;25071;-70
2023/11/17 04:21:17;;;;;;;76.22;70.25;;;;;;;;;;5008785;28;25065;-69
2023/11/17 04:23:43;;;;;;;78.28;71.70;;;;;;;;;;5010223;28;25067;-70
2023/11/17 04:26:09;;;;;;;80.50;73.68;;;;;;;;;;5009841;28;25061;-71
2023/11/17 04:28:40;;;;;;;75.13;69.20;;;;;;;;;;5010909;28;25077;-70
2023/11/17 04:31:07;;;;;;;74.50;68.30;;;;;;;;;;5011033;28;25071;-70
2023/11/17 04:33:34;;;;;;;76.95;70.55;;;;;;;;;;5010707;28;25047;-68
2023/11/17 04:36:01;;;;;;;76.75;70.18;;;;;;;;;;5006935;28;25060;-72
2023/11/17 04:38:27;;;;;;;74.55;67.78;;;;;;;;;;5008462;28;25054;-70
2023/11/17 04:40:54;;;;;;;75.82;69.00;;;;;;;;;;5012152;28;25082;-70
2023/11/17 04:43:21;;;;;;;72.90;66.72;;;;;;;;;;5014844;28;25085;-70
2023/11/17 04:45:48;;;;;;;76.30;69.05;;;;;;;;;;5014708;28;25039;-69
2023/11/17 04:48:16;;;;;;;73.75;67.53;;;;;;;;;;5009726;28;25179;-69
2023/11/17 04:50:42;;;;;;;73.18;66.95;;;;;;;;;;5008886;28;25059;-70
2023/11/17 04:53:08;;;;;;;74.97;67.70;;;;;;;;;;5008460;28;25132;-69
2023/11/17 04:55:34;;;;;;;73.72;66.97;;;;;;;;;;5010215;28;25049;-70
2023/11/17 04:58:00;;;;;;;70.05;64.05;;;;;;;;;;5010892;28;25078;-70
2023/11/17 05:00:27;;;;;;;76.65;69.78;;;;;;;;;;5008804;28;25059;-70
2023/11/17 05:02:53;;;;;;;70.18;64.45;;;;;;;;;;5009198;28;25079;-70
2023/11/17 05:05:20;;;;;;;73.57;67.30;;;;;;;;;;5011972;28;25057;-70
2023/11/17 05:07:46;;;;;;;68.47;62.42;;;;;;;;;;5011049;28;25177;-70
2023/11/17 05:10:19;;;;;;;72.82;65.85;;;;;;;;;;5006899;28;25129;-69
2023/11/17 05:12:46;;;;;;;68.85;62.33;;;;;;;;;;5009522;28;25193;-70
2023/11/17 05:15:13;;;;;;;68.10;62.00;;;;;;;;;;5009548;28;25173;-69
2023/11/17 05:17:43;;;;;;;64.05;58.38;;;;;;;;;;5010543;28;25059;-69
2023/11/17 05:20:13;;;;;;;63.25;57.95;;;;;;;;;;5006837;28;25048;-70
2023/11/17 05:22:39;;;;;;;62.95;57.85;;;;;;;;;;5010415;28;25069;-70
2023/11/17 05:25:06;;;;;;;66.03;60.58;;;;;;;;;;5008238;28;25125;-69
2023/11/17 05:27:33;;;;;;;62.22;56.95;;;;;;;;;;5008532;28;25075;-71
2023/11/17 05:29:59;;;;;;;60.65;55.30;;;;;;;;;;5006946;28;25105;-70
2023/11/17 05:32:25;;;;;;;61.58;56.20;;;;;;;;;;5009717;28;25083;-69
2023/11/17 05:34:51;;;;;;;59.58;54.58;;;;;;;;;;5006634;28;25153;-70
2023/11/17 05:37:18;;;;;;;61.15;55.85;;;;;;;;;;5009900;28;25055;-70
2023/11/17 05:39:47;;;;;;;58.65;53.90;;;;;;;;;;5009757;28;25050;-69
2023/11/17 05:42:13;;;;;;;64.43;59.17;;;;;;;;;;5009572;28;25143;-70
2023/11/17 05:44:39;;;;;;;63.25;57.72;;;;;;;;;;5002967;28;25139;-70
2023/11/17 05:47:08;;;;;;;66.05;59.70;;;;;;;;;;5004979;28;25059;-69
2023/11/17 05:49:44;;;;;;;65.63;59.42;;;;;;;;;;5049121;28;25081;-62
2023/11/17 05:52:10;;;;;;;68.72;62.47;;;;;;;;;;5002215;28;25150;-63
2023/11/17 05:54:43;;;;;;;70.05;63.95;;;;;;;;;;4994257;28;25127;-63
2023/11/17 05:57:09;;;;;;;65.05;59.33;;;;;;;;;;5017370;28;25065;-62
2023/11/17 05:59:35;;;;;;;65.13;59.70;;;;;;;;;;5019667;28;25066;-62
2023/11/17 06:02:03;;;;;;;66.40;60.60;;;;;;;;;;5018542;23;25073;-70
2023/11/17 06:04:29;;;;;;;61.85;56.22;;;;;;;;;;5011029;28;25142;-69
2023/11/17 06:06:56;;;;;;;58.80;53.50;;;;;;;;;;5003270;28;25160;-71
2023/11/17 06:09:22;;;;;;;61.60;56.17;;;;;;;;;;5023206;28;25072;-69
2023/11/17 06:11:48;;;;;;;59.63;54.50;;;;;;;;;;5013385;28;25080;-69
2023/11/17 06:14:14;;;;;;;65.30;58.80;;;;;;;;;;5009395;28;25145;-69
2023/11/17 06:16:40;;;;;;;61.00;55.95;;;;;;;;;;5008464;28;25162;-70
2023/11/17 06:19:08;;;;;;;68.70;62.17;;;;;;;;;;5010673;28;25154;-71
2023/11/17 06:21:34;;;;;;;63.50;58.10;;;;;;;;;;5006736;28;25108;-70
2023/11/17 06:24:00;;;;;;;66.45;60.20;;;;;;;;;;5013475;28;25181;-71
2023/11/17 06:26:27;;;;;;;67.60;61.35;;;;;;;;;;5009760;28;25077;-69
2023/11/17 06:28:57;;;;;;;64.97;59.95;;;;;;;;;;5007776;28;25101;-69
2023/11/17 06:31:25;;;;;;;68.70;62.13;;;;;;;;;;5016574;28;25071;-70
2023/11/17 06:33:51;;;;;;;69.75;63.58;;;;;;;;;;5019490;28;25071;-70
2023/11/17 06:36:17;;;;;;;70.82;63.78;;;;;;;;;;5017437;28;25056;-71
2023/11/17 06:38:45;;;;;;;70.22;63.38;;;;;;;;;;5013204;28;25127;-71
2023/11/17 06:41:11;;;;;;;73.63;66.10;;;;;;;;;;5014827;28;25073;-71
2023/11/17 06:43:37;;;;;;;72.88;66.40;;;;;;;;;;5012402;28;25063;-72
2023/11/17 06:46:05;;;;;;;65.80;60.30;;;;;;;;;;5010209;28;25063;-70
2023/11/17 06:48:32;;;;;;;66.40;60.40;;;;;;;;;;5005481;28;25081;-69
2023/11/17 06:50:59;;;;;;;66.00;60.15;;;;;;;;;;5010454;28;25135;-70
2023/11/17 06:53:25;;;;;;;66.53;60.25;;;;;;;;;;5005820;28;25111;-69
2023/11/17 06:55:51;;;;;;;71.40;64.55;;;;;;;;;;5004850;28;25143;-70
2023/11/17 06:58:17;;;;;;;67.45;60.85;;;;;;;;;;5002201;28;25062;-70
2023/11/17 07:00:43;;;;;;;69.03;62.08;;;;;;;;;;4996622;28;25117;-71
2023/11/17 07:03:10;;;;;;;67.93;61.13;;;;;;;;;;4989700;28;25155;-71
2023/11/17 07:05:38;;;;;;;71.97;64.75;;;;;;;;;;4990503;28;25092;-72
2023/11/17 07:08:04;;;;;;;71.95;64.57;;;;;;;;;;4992837;28;25056;-70
2023/11/17 07:10:30;;;;;;;75.38;68.65;;;;;;;;;;4989124;28;25161;-70
2023/11/17 07:12:58;;;;;;;74.07;66.70;;;;;;;;;;4990698;28;25063;-70
2023/11/17 07:15:24;;;;;;;75.50;68.25;;;;;;;;;;4996886;28;25072;-70
2023/11/17 07:17:53;;;;;;;74.20;66.60;;;;;;;;;;4993838;28;25053;-70
2023/11/17 07:20:21;;;;;;;75.28;68.28;;;;;;;;;;4987301;28;25077;-70
2023/11/17 07:22:49;;;;;;;77.25;69.63;;;;;;;;;;4993751;28;25065;-69
2023/11/17 07:25:15;;;;;;;77.30;69.68;;;;;;;;;;4998636;28;25060;-72
2023/11/17 07:27:43;;;;;;;76.55;68.88;;;;;;;;;;4990946;28;25057;-70
2023/11/17 07:30:12;;;;;;;79.38;71.15;;;;;;;;;;4989589;28;25149;-71
2023/11/17 07:32:39;;;;;;;78.68;70.72;;;;;;;;;;4988593;28;25144;-70
2023/11/17 07:35:06;;;;;;;78.57;70.07;;;;;;;;;;4988218;28;25107;-71
2023/11/17 07:37:32;;;;;;;74.60;67.28;;;;;;;;;;4986783;28;25136;-70
2023/11/17 07:39:59;;;;;;;78.70;70.85;;;;;;;;;;4990869;28;25072;-70
2023/11/17 07:42:25;;;;;;;77.55;70.00;;;;;;;;;;4990394;28;25082;-71
2023/11/17 07:44:51;;;;;;;78.97;71.07;;;;;;;;;;4990507;28;25065;-70
2023/11/17 07:47:20;;;;;;;78.28;70.40;;;;;;;;;;4989522;28;25069;-69
2023/11/17 07:49:46;;;;;;;76.80;69.63;;;;;;;;;;4985509;28;25072;-71
2023/11/17 07:52:12;;;;;;;84.55;75.82;;;;;;;;;;4983694;28;25064;-72
2023/11/17 07:54:39;;;;;;;77.30;70.15;;;;;;;;;;4985294;28;25088;-72
2023/11/17 07:57:06;;;;;;;78.80;70.82;;;;;;;;;;4984692;28;25061;-70
2023/11/17 07:59:32;;;;;;;76.07;68.60;;;;;;;;;;4990339;28;25084;-70
2023/11/17 08:01:59;;;;;;;81.28;72.85;;;;;;;;;;4989498;28;25082;-70
2023/11/17 08:04:25;;;;;;;80.60;73.07;;;;;;;;;;4987817;28;25053;-70
2023/11/17 08:06:53;;;;;;;81.55;73.60;;;;;;;;;;4999030;28;25134;-69
2023/11/17 08:09:19;;;;;;;79.68;72.45;;;;;;;;;;4981867;28;25075;-70
2023/11/17 08:11:45;;;;;;;79.38;71.80;;;;;;;;;;4982610;28;25076;-69
2023/11/17 08:14:13;;;;;;;78.70;71.57;;;;;;;;;;4988726;28;25051;-70
2023/11/17 08:16:39;;;;;;;82.32;73.60;;;;;;;;;;4981390;28;25064;-70
2023/11/17 08:19:08;;;;;;;77.47;69.90;;;;;;;;;;4984662;28;25073;-72
2023/11/17 08:21:34;;;;;;;78.85;71.30;;;;;;;;;;4984144;28;25063;-70
2023/11/17 08:24:00;;;;;;;68.82;63.33;;;;;;;;;;4987973;28;25066;-70
2023/11/17 08:26:30;;;;;;;75.57;69.05;;;;;;;;;;4983933;28;25065;-70
2023/11/17 08:28:57;;;;;;;77.53;70.43;;;;;;;;;;4983007;28;25020;-71
2023/11/17 08:31:22;;;;;;;81.28;73.32;;;;;;;;;;4980457;28;25071;-71
2023/11/17 08:33:49;;;;;;;81.93;74.00;;;;;;;;;;4985781;28;25064;-70
2023/11/17 08:36:17;;;;;;;76.32;69.10;;;;;;;;;;4981969;28;25187;-71
2023/11/17 08:38:45;;;;;;;74.35;67.30;;;;;;;;;;4987653;28;25122;-70
2023/11/17 08:41:11;;;;;;;80.30;72.13;;;;;;;;;;4985721;28;25162;-71
2023/11/17 08:43:40;;;;;;;77.88;70.22;;;;;;;;;;4981854;28;25084;-70
2023/11/17 08:46:06;;;;;;;81.20;73.57;;;;;;;;;;4979191;28;25063;-71
2023/11/17 08:48:34;;;;;;;82.00;74.03;;;;;;;;;;4987110;28;25118;-71
2023/11/17 08:51:01;;;;;;;86.60;78.85;;;;;;;;;;4985589;28;25103;-69
2023/11/17 08:53:27;;;;;;;87.13;78.80;;;;;;;;;;4983870;28;25046;-70
2023/11/17 08:55:53;;;;;;;81.65;73.53;;;;;;;;;;4985982;28;25120;-70
2023/11/17 08:58:20;;;;;;;69.93;63.72;;;;;;;;;;4986133;28;25058;-71
2023/11/17 09:00:49;;;;;;;75.63;68.75;;;;;;;;;;4999415;28;25157;-71
2023/11/17 09:03:16;;;;;;;72.13;65.63;;;;;;;;;;4988258;28;25073;-71
2023/11/17 09:05:42;;;;;;;69.53;62.95;;;;;;;;;;4987892;28;25046;-70
2023/11/17 09:08:08;;;;;;;65.88;59.80;;;;;;;;;;4989674;28;25151;-70
2023/11/17 09:10:34;;;;;;;67.10;60.70;;;;;;;;;;4989627;28;25061;-70
2023/11/17 09:13:04;;;;;;;61.30;55.47;;;;;;;;;;4986463;28;25075;-70
2023/11/17 09:15:33;;;;;;;59.53;53.70;;;;;;;;;;4987828;28;25091;-70
2023/11/17 09:17:59;;;;;;;49.05;44.67;;;;;;;;;;4992327;28;25076;-70
2023/11/17 09:20:28;;;;;;;42.47;38.75;;;;;;;;;;4988820;28;25151;-70
2023/11/17 09:22:54;;;;;;;41.83;37.65;;;;;;;;;;4984246;28;25105;-71
2023/11/17 09:25:23;;;;;;;40.65;37.05;;;;;;;;;;4982343;28;25064;-70
2023/11/17 09:27:56;;;;;;;42.70;38.60;;;;;;;;;;4983022;28;25081;-70
2023/11/17 09:30:22;;;;;;;47.33;42.25;;;;;;;;;;4985160;28;25171;-70
2023/11/17 09:32:55;;;;;;;43.15;38.92;;;;;;;;;;4982102;28;25099;-71
2023/11/17 09:35:21;;;;;;;43.95;39.70;;;;;;;;;;4983234;28;25060;-71
2023/11/17 09:37:53;;;;;;;42.03;37.63;;;;;;;;;;4983413;28;25119;-70
2023/11/17 09:40:23;;;;;;;43.70;39.45;;;;;;;;;;4984413;28;25086;-70
2023/11/17 09:42:53;;;;;;;44.80;40.60;;;;;;;;;;4983879;28;25078;-70
2023/11/17 09:45:19;;;;;;;49.03;43.42;;;;;;;;;;4983826;28;25068;-70
2023/11/17 09:47:46;;;;;;;43.67;39.33;;;;;;;;;;4984427;28;25069;-69
2023/11/17 09:50:13;;;;;;;44.10;39.75;;;;;;;;;;4990695;28;25053;-71
2023/11/17 09:52:42;;;;;;;40.72;36.63;;;;;;;;;;4987418;28;25070;-69
2023/11/17 09:55:08;;;;;;;45.00;40.33;;;;;;;;;;4990479;28;25085;-69
2023/11/17 09:57:34;;;;;;;43.17;38.65;;;;;;;;;;4989024;28;25073;-71
2023/11/17 10:00:07;;;;;;;44.85;38.22;;;;;;;;;;4975727;28;25057;-70
2023/11/17 10:02:32;;;;;;;;;;;;;;;;;;4981672;28;25102;-69
2023/11/17 10:04:59;;;;;;;42.95;38.60;;;;;;;;;;4981419;28;25094;-71
2023/11/17 10:07:26;;;;;;;40.15;35.92;;;;;;;;;;4987172;28;25067;-70
2023/11/17 10:09:54;;;;;;;41.28;32.65;;;;;;;;;;4982020;28;25121;-70
2023/11/17 10:12:22;;;;;;;41.95;35.55;;;;;;;;;;4980064;28;25061;-70
2023/11/17 10:14:48;;;;;;;44.15;34.30;;;;;;;;;;4983266;28;25060;-70
2023/11/17 10:17:17;;;;;;;41.85;30.80;;;;;;;;;;4989617;28;24994;-70
2023/11/17 10:19:44;;;;;;;42.70;28.83;;;;;;;;;;4989970;28;25068;-70
2023/11/17 10:22:12;;;;;;;38.65;33.55;;;;;;;;;;4971748;28;25146;-69
2023/11/17 10:24:39;;;;;;;47.63;34.30;;;;;;;;;;4982513;28;25102;-71
2023/11/17 10:27:06;;;;;;;43.20;34.03;;;;;;;;;;4983947;28;25106;-71
2023/11/17 10:29:36;;;;;;;41.90;36.05;;;;;;;;;;4952415;28;25055;-72
2023/11/17 10:32:03;;;;;;;43.20;38.55;;;;;;;;;;4980176;28;25072;-72
2023/11/17 10:34:31;;;;;;;42.28;36.72;;;;;;;;;;4982010;28;25092;-70
2023/11/17 10:36:57;;;;;;;34.70;22.23;;;;;;;;;;4983765;28;25083;-71
2023/11/17 10:39:27;;;;;;;31.77;22.70;;;;;;;;;;4983455;28;25083;-71
2023/11/17 10:41:53;;;;;;;30.52;20.85;;;;;;;;;;4984770;28;25136;-71
2023/11/17 10:44:41;;;;;;;28.17;18.85;;;;;;;;;;4987557;28;25162;-71
2023/11/17 10:47:09;;;;;;;26.45;19.42;;;;;;;;;;4980454;28;25077;-70
2023/11/17 10:49:35;;;;;;;22.55;15.65;;;;;;;;;;4985310;28;25095;-74
2023/11/17 10:52:05;;;;;;;19.52;13.50;;;;;;;;;;4975012;28;25111;-70
2023/11/17 10:54:33;;;;;;;16.17;11.38;;;;;;;;;;4983738;28;25129;-71
2023/11/17 10:57:10;;;;;;;14.93;10.35;;;;;;;;;;4987487;28;25153;-71
2023/11/17 10:59:36;;;;;;;13.38;8.18;;;;;;;;;;4982469;28;25054;-73
2023/11/17 11:02:03;;;;;;;11.43;7.50;;;;;;;;;;4987212;28;25067;-70
2023/11/17 11:04:32;;;;;;;11.90;7.63;;;;;;;;;;4984557;28;25094;-71
2023/11/17 11:06:58;;;;;;;15.55;9.23;;;;;;;;;;4987895;28;25091;-72
2023/11/17 11:09:30;;;;;;;17.25;9.65;;;;;;;;;;4986914;28;25047;-71
2023/11/17 11:11:57;;;;;;;14.57;8.57;;;;;;;;;;4977791;28;25059;-71
2023/11/17 11:14:24;;;;;;;11.70;8.85;;;;;;;;;;4985966;28;25062;-72
2023/11/17 11:16:50;;;;;;;14.18;9.57;;;;;;;;;;4988065;28;25190;-72
2023/11/17 11:19:17;;;;;;;14.35;10.15;;;;;;;;;;4984027;28;25070;-71
2023/11/17 11:21:43;;;;;;;15.82;9.80;;;;;;;;;;4982810;28;25116;-72
2023/11/17 11:24:09;;;;;;;13.30;9.98;;;;;;;;;;4986855;28;25063;-74
2023/11/17 11:26:38;;;;;;;15.20;9.27;;;;;;;;;;4984612;28;25150;-72
2023/11/17 11:29:07;;;;;;;11.13;9.15;;;;;;;;;;4985712;28;25507;-71
2023/11/17 11:31:37;;;;;;;16.83;9.20;;;;;;;;;;4980244;28;25072;-72
2023/11/17 11:34:03;;;;;;;12.55;9.45;;;;;;;;;;4979863;28;25089;-71
2023/11/17 11:36:29;;;;;;;19.10;11.57;;;;;;;;;;4985107;28;25101;-71
2023/11/17 11:38:56;;;;;;;16.38;10.82;;;;;;;;;;4984839;28;25072;-73
2023/11/17 11:41:22;;;;;;;18.63;12.70;;;;;;;;;;4996670;28;25062;-73
2023/11/17 11:43:54;;;;;;;18.73;11.95;;;;;;;;;;4987074;28;25123;-71
2023/11/17 11:46:20;;;;;;;;;;;;;;;;;;4987189;28;25152;-71
2023/11/17 11:48:59;;;;;;;18.25;12.23;;;;;;;;;;4988081;28;24176;-71
2023/11/17 11:51:27;;;;;;;19.92;12.77;;;;;;;;;;4983836;28;25093;-71
2023/11/17 11:53:55;;;;;;;18.30;13.15;;;;;;;;;;4988208;28;25089;-71
2023/11/17 11:56:22;;;;;;;19.75;13.73;;;;;;;;;;4980035;28;25069;-72
2023/11/17 11:58:49;;;;;;;20.67;14.70;;;;;;;;;;4986606;28;25173;-73
2023/11/17 12:01:16;;;;;;;21.02;15.00;;;;;;;;;;4955226;28;25099;-73
2023/11/17 12:03:44;;;;;;;19.50;14.85;;;;;;;;;;4986403;28;25168;-72
2023/11/17 12:06:10;;;;;;;19.73;13.77;;;;;;;;;;4969685;28;25058;-72
2023/11/17 12:08:36;;;;;;;20.35;14.05;;;;;;;;;;4980811;28;25122;-72
2023/11/17 12:11:10;;;;;;;20.55;13.38;;;;;;;;;;4982337;28;25155;-73
2023/11/17 12:13:44;;;;;;;16.77;12.77;;;;;;;;;;4977981;28;25152;-72
2023/11/17 12:16:17;;;;;;;19.05;12.52;;;;;;;;;;4986548;28;25049;-73
2023/11/17 12:18:44;;;;;;;24.60;13.05;;;;;;;;;;4986840;28;25133;-71
2023/11/17 12:21:19;;;;;;;16.48;12.35;;;;;;;;;;4985157;28;25089;-71
2023/11/17 12:23:49;;;;;;;15.68;11.85;;;;;;;;;;4981702;28;25095;-70
2023/11/17 12:26:19;;;;;;;13.95;10.05;;;;;;;;;;4985795;28;25067;-70
2023/11/17 12:28:45;;;;;;;10.27;7.50;;;;;;;;;;5010547;23;25067;-65
2023/11/17 12:31:15;;;;;;;11.02;7.35;;;;;;;;;;5003438;28;25055;-66
2023/11/17 12:33:42;;;;;;;9.38;6.22;;;;;;;;;;5004812;28;25147;-66
2023/11/17 12:36:09;;;;;;;8.20;6.47;;;;;;;;;;5002998;28;25055;-64
2023/11/17 12:38:36;;;;;;;5.25;4.32;;;;;;;;;;5001500;28;25064;-64
2023/11/17 12:41:02;;;;;;;4.70;4.25;;;;;;;;;;4989734;23;25053;-76
2023/11/17 12:43:31;;;;;;;5.68;5.18;;;;;;;;;;4981078;28;25067;-76
2023/11/17 12:46:00;;;;;;;7.70;5.68;;;;;;;;;;4980524;28;25058;-76
2023/11/17 12:48:29;;;;;;;6.57;5.50;;;;;;;;;;4969087;28;25167;-76
2023/11/17 12:50:57;;;;;;;11.05;6.70;;;;;;;;;;4969034;28;25080;-75
2023/11/17 12:53:24;;;;;;;11.07;6.60;;;;;;;;;;4976608;28;25098;-75
2023/11/17 12:55:53;;;;;;;10.32;6.72;;;;;;;;;;4970834;28;25067;-76
2023/11/17 12:58:21;;;;;;;9.77;6.38;;;;;;;;;;4978428;28;25160;-76
2023/11/17 13:00:49;;;;;;;15.55;8.57;;;;;;;;;;4972860;28;25066;-77
2023/11/17 13:03:15;;;;;;;11.63;7.80;;;;;;;;;;4975515;28;25230;-76
2023/11/17 13:05:41;;;;;;;10.40;8.00;;;;;;;;;;4977291;28;25111;-75
2023/11/17 13:08:08;;;;;;;13.73;8.07;;;;;;;;;;4969919;28;25066;-76
2023/11/17 13:10:35;;;;;;;13.55;8.77;;;;;;;;;;4976315;28;25052;-78
2023/11/17 13:13:06;;;;;;;10.32;8.05;;;;;;;;;;4964164;28;25087;-75
2023/11/17 13:15:35;;;;;;;15.00;10.15;;;;;;;;;;4966083;28;25048;-76
2023/11/17 13:18:02;;;;;;;12.93;10.48;;;;;;;;;;4976057;28;25112;-76
2023/11/17 13:20:30;;;;;;;13.88;9.68;;;;;;;;;;4977664;28;25052;-78
2023/11/17 13:22:57;;;;;;;15.77;10.98;;;;;;;;;;4966394;28;25107;-77
2023/11/17 13:25:25;;;;;;;15.10;10.02;;;;;;;;;;4967439;28;25071;-77
2023/11/17 13:27:51;;;;;;;17.23;9.63;;;;;;;;;;4971846;28;25112;-76
2023/11/17 13:30:18;;;;;;;14.57;9.15;;;;;;;;;;4972977;28;25073;-75
2023/11/17 13:32:51;;;;;;;13.82;9.50;;;;;;;;;;4967280;28;25100;-75
2023/11/17 13:35:21;;;;;;;16.45;10.18;;;;;;;;;;4976290;28;25064;-76
2023/11/17 13:37:51;;;;;;;15.43;10.10;;;;;;;;;;4969040;28;25164;-79
2023/11/17 13:40:25;;;;;;;15.35;9.82;;;;;;;;;;4975087;28;25156;-76
2023/11/17 13:42:52;;;;;;;12.10;8.52;;;;;;;;;;4974524;28;25099;-76
2023/11/17 13:45:18;;;;;;;12.10;8.48;;;;;;;;;;4974883;28;25045;-76
2023/11/17 13:47:46;;;;;;;14.48;10.35;;;;;;;;;;4966471;28;25090;-76
2023/11/17 13:50:16;;;;;;;15.02;9.70;;;;;;;;;;4983609;28;25092;-76
2023/11/17 13:52:42;;;;;;;12.90;9.48;;;;;;;;;;4980227;28;25125;-76
2023/11/17 13:55:12;;;;;;;12.70;8.65;;;;;;;;;;4987197;28;25098;-78
2023/11/17 13:57:38;;;;;;;16.08;8.60;;;;;;;;;;4979590;28;25059;-76
2023/11/17 14:00:06;;;;;;;12.15;7.85;;;;;;;;;;4964094;28;25067;-78
2023/11/17 14:02:32;;;;;;;8.38;6.55;;;;;;;;;;4977598;28;25075;-77
2023/11/17 14:05:00;;;;;;;12.27;7.68;;;;;;;;;;4977293;28;25080;-76
2023/11/17 14:07:26;;;;;;;9.32;7.18;;;;;;;;;;4971990;28;25113;-76
2023/11/17 14:09:52;;;;;;;10.30;6.47;;;;;;;;;;4975992;28;25149;-78
2023/11/17 14:12:20;;;;;;;8.75;6.20;;;;;;;;;;4977661;28;25100;-77
2023/11/17 14:14:46;;;;;;;7.72;6.03;;;;;;;;;;4959980;28;25220;-76
2023/11/17 14:17:12;;;;;;;8.82;6.57;;;;;;;;;;4994326;28;25114;-75
2023/11/17 14:19:38;;;;;;;9.88;5.90;;;;;;;;;;4975331;28;25120;-80
2023/11/17 14:22:04;;;;;;;7.25;5.53;;;;;;;;;;4970373;28;25068;-76
2023/11/17 14:24:30;;;;;;;6.47;4.95;;;;;;;;;;4971218;28;25047;-75